Daska Weather



Daska's Current Weather

Temprature 6o scattered clouds

scattered clouds

Rain: 0 %

Min Temprature6o
Max Temprature6o
Humidity93
Wind Speed1.7 m/h
Sun Rise07:03:20
Sun Set17:22:14
Current Time: 18-Jan-2021 05:09:53
Lat/Lon: 32.3243, 74.3497




Daska's Geo Location



Daska's Weather Forecast

Time Overall Temp Min Temp Max Temp Humidity Wind Speed Rain
18-Jan-2021 (Mon)
08:00:00 few clouds 7.530 7.530 9.140 81 1.29 m/h 0 %
11:00:00 clear sky 14.430 14.430 16.750 52 1.63 m/h 0 %
14:00:00 clear sky 19.160 19.160 20.060 35 0.98 m/h 0 %
17:00:00 clear sky 15.910 15.910 15.990 43 0.63 m/h 0 %
20:00:00 clear sky 12.840 12.840 12.840 47 1.61 m/h 0 %
23:00:00 clear sky 11.140 11.140 11.140 51 1.65 m/h 0 %
19-Jan-2021 (Tue)
02:00:00 clear sky 10.070 10.070 10.070 56 2.08 m/h 0 %
05:00:00 clear sky 9.260 9.260 9.260 60 2.09 m/h 0 %
08:00:00 clear sky 9.990 9.990 9.990 59 1.37 m/h 0 %
11:00:00 clear sky 17.480 17.480 17.480 38 2.5 m/h 0 %
14:00:00 clear sky 21.020 21.020 21.020 30 2.89 m/h 0 %
17:00:00 clear sky 17.050 17.050 17.050 40 2.33 m/h 0 %
20:00:00 clear sky 13.260 13.260 13.260 45 1.87 m/h 0 %
23:00:00 clear sky 11.440 11.440 11.440 45 1.67 m/h 0 %
20-Jan-2021 (Wed)
02:00:00 clear sky 10.050 10.050 10.050 47 2.07 m/h 0 %
05:00:00 clear sky 8.830 8.830 8.830 50 2.11 m/h 0 %
08:00:00 clear sky 9.700 9.700 9.700 49 1.88 m/h 0 %
11:00:00 clear sky 17.690 17.690 17.690 31 2.36 m/h 0 %
14:00:00 clear sky 21.610 21.610 21.610 24 3.54 m/h 0 %
17:00:00 clear sky 17.430 17.430 17.430 34 2.43 m/h 0 %
20:00:00 clear sky 13.270 13.270 13.270 38 2.68 m/h 0 %
23:00:00 clear sky 11.150 11.150 11.150 42 2.54 m/h 0 %
21-Jan-2021 (Thu)
02:00:00 few clouds 9.600 9.600 9.600 46 2.27 m/h 0 %
05:00:00 clear sky 8.490 8.490 8.490 50 1.68 m/h 0 %
08:00:00 clear sky 9.690 9.690 9.690 49 0.56 m/h 0 %
11:00:00 clear sky 17.710 17.710 17.710 29 1.47 m/h 0 %
14:00:00 clear sky 21.400 21.400 21.400 23 2.45 m/h 0 %
17:00:00 scattered clouds 16.990 16.990 16.990 31 1.57 m/h 0 %
20:00:00 broken clouds 13.120 13.120 13.120 38 0.13 m/h 0 %
23:00:00 broken clouds 12.140 12.140 12.140 40 2.13 m/h 0 %
22-Jan-2021 (Fri)
02:00:00 broken clouds 10.910 10.910 10.910 45 2.01 m/h 0 %
05:00:00 broken clouds 9.470 9.470 9.470 50 2.24 m/h 0 %
08:00:00 broken clouds 10.230 10.230 10.230 48 2.19 m/h 0 %
11:00:00 broken clouds 17.670 17.670 17.670 32 2.19 m/h 0 %
14:00:00 overcast clouds 21.540 21.540 21.540 25 2.26 m/h 0 %
17:00:00 overcast clouds 17.900 17.900 17.900 36 2.38 m/h 0 %
20:00:00 clear sky 13.850 13.850 13.850 43 3.46 m/h 0 %
23:00:00 clear sky 12.140 12.140 12.140 47 3.42 m/h 0 %
23-Jan-2021 (Sat)
02:00:00 clear sky 11.400 11.400 11.400 47 3.63 m/h 0 %
05:00:00 clear sky 9.960 9.960 9.960 50 2.26 m/h 0 %

Famous Cities (60)